• Join FlightAware (Why Join?)
  • Login
  • US Flag 
05:47PM EDT


 

Airport Tracker/Info


-or-


 

Live Flight TrackerFlight Track Log ✈ SWA655 ✈ 10-Jun-2013 ✈ KSAT - KELP

Flight Track Log - Related Links

Times and Time Zones

All times are in EDT time to prevent confusion due to time zone crossing. See the SWA655 flight status page for this flight to view local times or setup timezone preferences in your user account.

Time Position Orientation Groundspeed Altitude Reporting Facility
EDT Latitude Longitude Course Direction KTS MPH feet Rate Location/Type
03:05PM 29.5764 -98.4550 351° North 197 227 2,600  Level Houston Center
03:06PM 29.5975 -98.4636 340° North 206 237 3,700 2,340 Climbing Houston Center
03:06PM 29.6250 -98.5022 309° West 265 305 5,000 1,200 Climbing Houston Center
03:07PM 29.6481 -98.5411 304° West 265 305 5,000 2,100 Level Houston Center
03:08PM 29.7008 -98.6081 312° West 281 323 8,300 2,820 Climbing Houston Center
03:09PM 29.7669 -98.6769 318° Northwest 299 344 10,900 2,580 Climbing Houston Center
03:10PM 29.8381 -98.7508 318° Northwest 341 392 13,700 2,700 Climbing Houston Center
03:11PM 29.9139 -98.8392 315° West 360 414 16,500 2,460 Climbing Houston Center
03:12PM 29.9792 -98.9342 308° West 375 432 18,800 2,340 Climbing Houston Center
03:13PM 30.0522 -99.0381 309° West 385 443 21,400 1,980 Climbing Houston Center
03:14PM 30.1128 -99.1336 306° West 404 465 22,900 1,680 Climbing Houston Center
03:15PM 30.1506 -99.2617 289° West 423 487 24,900 1,740 Climbing Houston Center
03:16PM 30.1853 -99.3906 287° West 422 486 26,600 1,680 Climbing Houston Center
03:17PM 30.2306 -99.5514 288° West 436 502 28,400 1,380 Climbing Houston Center
03:18PM 30.2675 -99.6881 287° West 446 513 29,500 1,140 Climbing Houston Center
03:19PM 30.3061 -99.8275 288° West 456 525 30,800 1,380 Climbing Houston Center
03:20PM 30.3433 -99.9658 287° West 455 524 32,400 1,380 Climbing Houston Center
03:21PM 30.3789 -100.0994 287° West 427 491 33,700 1,200 Climbing Houston Center
03:22PM 30.4231 -100.2611 288° West 441 507 35,000 1,080 Climbing Houston Center
03:23PM 30.4586 -100.3978 287° West 446 513 36,000 480 Climbing Houston Center
03:24PM 30.4944 -100.5369 287° West 450 518 36,000 -60 Level Houston Center
03:25PM 30.5311 -100.6767 287° West 456 525 35,900  Descending Houston Center
03:26PM 30.5661 -100.8150 286° West 455 524 36,000  Climbing Houston Center
03:27PM 30.6094 -100.9822 287° West 456 525 36,000  Level Houston Center
03:28PM 30.6450 -101.1208 287° West 449 517 36,000  Level Houston Center
03:29PM 30.6822 -101.2608 287° West 458 527 36,000  Level Houston Center
03:31PM 30.7178 -101.4008 286° West 456 525 36,000  Level Houston Center
03:32PM 30.7536 -101.5414 287° West 458 527 36,000  Level Houston Center
03:33PM 30.7683 -101.7136 276° West 458 527 36,000  Level Houston Center
03:34PM 30.7825 -101.8594 276° West 454 522 36,000  Level Houston Center
03:35PM 30.7942 -102.0047 275° West 449 517 36,000  Level Houston Center
03:36PM 30.8086 -102.1489 277° West 446 513 36,000  Level Houston Center
03:37PM 30.8250 -102.3258 276° West 453 521 36,000  Level Albuquerque Center
03:38PM 30.8358 -102.4447 276° West 456 525 36,000  Level Houston Center
03:39PM 30.8728 -102.6161 284° West 457 526 36,000  Level Houston Center
03:40PM 30.9092 -102.7561 287° West 451 519 36,000  Level Houston Center
03:41PM 30.9425 -102.8978 285° West 452 520 36,000 -60 Level Houston Center
03:42PM 30.9750 -103.0369 285° West 447 514 35,900  Descending Houston Center
03:43PM 31.0069 -103.1739 285° West 440 506 36,000  Climbing Houston Center
03:44PM 31.0386 -103.3117 285° West 440 506 36,000  Level Houston Center
03:45PM 31.0767 -103.4758 285° West 442 509 36,000 -240 Level Albuquerque Center
03:46PM 31.1078 -103.6131 285° West 440 506 35,500 -780 Descending Albuquerque Center
03:47PM 31.1389 -103.7517 285° West 442 509 34,500 -840 Descending Albuquerque Center
03:48PM 31.1761 -103.9156 285° West 449 517 33,800 -840 Descending Albuquerque Center
03:49PM 31.2081 -104.0575 285° West 453 521 32,800 -960 Descending Albuquerque Center
03:50PM 31.2400 -104.1975 285° West 451 519 31,900 -420 Descending Albuquerque Center
03:51PM 31.2728 -104.3372 285° West 449 517 32,000  Climbing Albuquerque Center
03:52PM 31.3036 -104.4781 284° West 451 519 32,000 -60 Level Albuquerque Center
03:53PM 31.3344 -104.6194 284° West 453 521 31,900 -1,080 Descending Albuquerque Center
03:54PM 31.3719 -104.7867 285° West 448 516 29,900 -2,220 Descending Albuquerque Center
03:55PM 31.4014 -104.9197 285° West 435 501 27,400 -2,520 Descending Albuquerque Center
03:56PM 31.4286 -105.0486 284° West 418 481 24,700 -2,400 Descending Albuquerque Center
03:57PM 31.4561 -105.1761 284° West 411 473 22,600 -2,040 Descending Albuquerque Center
03:58PM 31.4833 -105.2975 285° West 395 455 20,600 -2,040 Descending Albuquerque Center
03:59PM 31.5053 -105.4242 282° West 381 438 18,800 -1,980 Descending Albuquerque Center
04:00PM 31.5164 -105.4711 286° West 383 441 18,100 -2,040 Descending Albuquerque Center
04:01PM 31.5392 -105.5669 286° West 392 451 16,400 -2,280 Descending Albuquerque Center
04:02PM 31.5653 -105.6875 284° West 385 443 14,000 -1,860 Descending Albuquerque Center
04:03PM 31.6042 -105.7917 294° West 352 405 12,600 -1,380 Descending Albuquerque Center
04:03PM 31.6272 -105.8222 312° West 325 374 12,200 -1,080 Descending Albuquerque Center
04:04PM 31.6625 -105.8689 312° West 317 365 11,500 -1,200 Descending Albuquerque Center
04:04PM 31.6819 -105.8983 308° West 299 344 11,000 -1,380 Descending Albuquerque Center
04:05PM 31.7361 -105.9719 311° West 299 344 9,800 -1,080 Descending Albuquerque Center
04:06PM 31.7697 -106.0197 310° West 301 346 9,100 -1,320 Descending Albuquerque Center
04:07PM 31.7975 -106.1106 290° West 293 337 7,500 -1,080 Descending Albuquerque Center
04:08PM 31.8322 -106.2083 293° West 263 303 7,000 -540 Descending Albuquerque Center
04:09PM 31.8656 -106.2606 307° West 194 223 6,500 -840 Descending Albuquerque Center
04:10PM 31.8628 -106.3122 266° West 166 191 5,300 -1,020 Descending Albuquerque Center
04:11PM 31.8333 -106.3544 231° Southwest 156 180 4,400 -660 Descending Albuquerque Center
04:12PM 31.8100 -106.3856 229° Southwest 151 174 4,000 -420 Descending Albuquerque Center
04:14PM 31.8072 -106.3764 90° East  Level Estimated
04:21PM 31.8072 -106.3764 90° East  Level Estimated
04:22PM 31.8072 -106.3764 90° East  Level Estimated
04:23PM 31.8072 -106.3764 90° East  Level Estimated